sensor_id;sensor_type;location;lat;lon;timestamp;P1;durP1;ratioP1;P2;durP2;ratioP2
59830;SDS011;45711;50.108;13.712;2023-02-15T00:00:14;44.78;;;16.65;;
59830;SDS011;45711;50.108;13.712;2023-02-15T00:02:40;40.05;;;16.15;;
59830;SDS011;45711;50.108;13.712;2023-02-15T00:05:06;45.53;;;17.10;;
59830;SDS011;45711;50.108;13.712;2023-02-15T00:07:32;39.22;;;15.43;;
59830;SDS011;45711;50.108;13.712;2023-02-15T00:09:57;43.88;;;16.20;;
59830;SDS011;45711;50.108;13.712;2023-02-15T00:12:23;46.67;;;17.35;;
59830;SDS011;45711;50.108;13.712;2023-02-15T00:14:50;37.83;;;15.65;;
59830;SDS011;45711;50.108;13.712;2023-02-15T00:17:16;47.65;;;16.75;;
59830;SDS011;45711;50.108;13.712;2023-02-15T00:19:41;45.63;;;16.35;;
59830;SDS011;45711;50.108;13.712;2023-02-15T00:22:07;51.35;;;17.42;;
59830;SDS011;45711;50.108;13.712;2023-02-15T00:24:32;35.58;;;14.18;;
59830;SDS011;45711;50.108;13.712;2023-02-15T00:26:58;40.90;;;14.70;;
59830;SDS011;45711;50.108;13.712;2023-02-15T00:29:24;42.47;;;15.18;;
59830;SDS011;45711;50.108;13.712;2023-02-15T00:31:51;37.72;;;15.30;;
59830;SDS011;45711;50.108;13.712;2023-02-15T00:34:18;39.35;;;14.68;;
59830;SDS011;45711;50.108;13.712;2023-02-15T00:36:44;40.95;;;15.48;;
59830;SDS011;45711;50.108;13.712;2023-02-15T00:39:10;38.05;;;14.32;;
59830;SDS011;45711;50.108;13.712;2023-02-15T00:41:36;35.38;;;14.82;;
59830;SDS011;45711;50.108;13.712;2023-02-15T00:44:02;35.22;;;13.98;;
59830;SDS011;45711;50.108;13.712;2023-02-15T00:46:28;35.03;;;14.20;;
59830;SDS011;45711;50.108;13.712;2023-02-15T00:48:56;36.13;;;14.10;;
59830;SDS011;45711;50.108;13.712;2023-02-15T00:51:21;36.20;;;14.15;;
59830;SDS011;45711;50.108;13.712;2023-02-15T00:53:47;32.28;;;14.68;;
59830;SDS011;45711;50.108;13.712;2023-02-15T00:56:15;37.70;;;14.50;;
59830;SDS011;45711;50.108;13.712;2023-02-15T00:58:41;36.90;;;14.95;;
59830;SDS011;45711;50.108;13.712;2023-02-15T01:01:07;36.08;;;14.15;;
59830;SDS011;45711;50.108;13.712;2023-02-15T01:03:34;41.55;;;15.38;;
59830;SDS011;45711;50.108;13.712;2023-02-15T01:06:02;30.73;;;13.45;;
59830;SDS011;45711;50.108;13.712;2023-02-15T01:08:28;39.30;;;14.68;;
59830;SDS011;45711;50.108;13.712;2023-02-15T01:10:54;41.15;;;14.35;;
59830;SDS011;45711;50.108;13.712;2023-02-15T01:13:20;33.30;;;13.85;;
59830;SDS011;45711;50.108;13.712;2023-02-15T01:15:51;33.67;;;13.40;;
59830;SDS011;45711;50.108;13.712;2023-02-15T01:18:18;36.75;;;14.18;;
59830;SDS011;45711;50.108;13.712;2023-02-15T01:20:43;33.17;;;13.88;;
59830;SDS011;45711;50.108;13.712;2023-02-15T01:23:11;37.17;;;12.98;;
59830;SDS011;45711;50.108;13.712;2023-02-15T01:25:37;30.75;;;12.93;;
59830;SDS011;45711;50.108;13.712;2023-02-15T01:28:03;32.42;;;14.13;;
59830;SDS011;45711;50.108;13.712;2023-02-15T01:30:29;33.08;;;12.55;;
59830;SDS011;45711;50.108;13.712;2023-02-15T01:32:56;33.75;;;12.77;;
59830;SDS011;45711;50.108;13.712;2023-02-15T01:35:22;33.45;;;13.10;;
59830;SDS011;45711;50.108;13.712;2023-02-15T01:37:48;27.00;;;11.70;;
59830;SDS011;45711;50.108;13.712;2023-02-15T01:40:16;27.83;;;11.48;;
59830;SDS011;45711;50.108;13.712;2023-02-15T01:42:42;30.83;;;12.48;;
59830;SDS011;45711;50.108;13.712;2023-02-15T01:45:14;34.85;;;12.18;;
59830;SDS011;45711;50.108;13.712;2023-02-15T01:47:47;31.55;;;12.25;;
59830;SDS011;45711;50.108;13.712;2023-02-15T01:50:18;30.08;;;12.48;;
59830;SDS011;45711;50.108;13.712;2023-02-15T01:52:48;29.20;;;11.70;;
59830;SDS011;45711;50.108;13.712;2023-02-15T01:55:19;28.27;;;11.73;;
59830;SDS011;45711;50.108;13.712;2023-02-15T01:57:46;29.52;;;12.00;;
59830;SDS011;45711;50.108;13.712;2023-02-15T02:00:12;28.70;;;11.65;;
59830;SDS011;45711;50.108;13.712;2023-02-15T02:02:39;29.52;;;11.60;;
59830;SDS011;45711;50.108;13.712;2023-02-15T02:05:05;32.28;;;11.82;;
59830;SDS011;45711;50.108;13.712;2023-02-15T02:07:32;24.88;;;11.48;;
59830;SDS011;45711;50.108;13.712;2023-02-15T02:10:04;26.38;;;10.90;;
59830;SDS011;45711;50.108;13.712;2023-02-15T02:12:32;30.50;;;12.38;;
59830;SDS011;45711;50.108;13.712;2023-02-15T02:14:59;29.58;;;11.98;;
59830;SDS011;45711;50.108;13.712;2023-02-15T02:17:27;35.97;;;11.60;;
59830;SDS011;45711;50.108;13.712;2023-02-15T02:20:11;30.63;;;12.00;;
59830;SDS011;45711;50.108;13.712;2023-02-15T02:25:54;28.23;;;10.95;;
59830;SDS011;45711;50.108;13.712;2023-02-15T02:28:57;25.75;;;12.02;;
59830;SDS011;45711;50.108;13.712;2023-02-15T02:31:55;28.27;;;10.60;;
59830;SDS011;45711;50.108;13.712;2023-02-15T02:34:50;33.03;;;12.07;;
59830;SDS011;45711;50.108;13.712;2023-02-15T02:37:22;29.88;;;10.93;;
59830;SDS011;45711;50.108;13.712;2023-02-15T02:39:54;26.83;;;10.48;;
59830;SDS011;45711;50.108;13.712;2023-02-15T02:42:24;26.35;;;11.43;;
59830;SDS011;45711;50.108;13.712;2023-02-15T02:44:57;29.55;;;11.38;;
59830;SDS011;45711;50.108;13.712;2023-02-15T02:47:29;30.73;;;12.50;;
59830;SDS011;45711;50.108;13.712;2023-02-15T02:50:00;29.75;;;11.57;;
59830;SDS011;45711;50.108;13.712;2023-02-15T02:52:34;35.85;;;11.73;;
59830;SDS011;45711;50.108;13.712;2023-02-15T02:55:02;30.60;;;10.77;;
59830;SDS011;45711;50.108;13.712;2023-02-15T02:57:32;24.08;;;10.73;;
59830;SDS011;45711;50.108;13.712;2023-02-15T03:00:00;23.65;;;10.02;;
59830;SDS011;45711;50.108;13.712;2023-02-15T03:02:29;31.83;;;11.13;;
59830;SDS011;45711;50.108;13.712;2023-02-15T03:05:00;30.70;;;11.45;;
59830;SDS011;45711;50.108;13.712;2023-02-15T03:07:29;23.05;;;9.80;;
59830;SDS011;45711;50.108;13.712;2023-02-15T03:09:56;23.20;;;9.80;;
59830;SDS011;45711;50.108;13.712;2023-02-15T03:12:24;23.00;;;9.80;;
59830;SDS011;45711;50.108;13.712;2023-02-15T03:14:53;30.55;;;10.25;;
59830;SDS011;45711;50.108;13.712;2023-02-15T03:17:25;26.13;;;9.30;;
59830;SDS011;45711;50.108;13.712;2023-02-15T03:19:55;25.60;;;9.48;;
59830;SDS011;45711;50.108;13.712;2023-02-15T03:22:26;24.55;;;9.77;;
59830;SDS011;45711;50.108;13.712;2023-02-15T03:24:57;22.98;;;9.30;;
59830;SDS011;45711;50.108;13.712;2023-02-15T03:27:27;26.92;;;10.20;;
59830;SDS011;45711;50.108;13.712;2023-02-15T03:29:58;23.63;;;9.50;;
59830;SDS011;45711;50.108;13.712;2023-02-15T03:32:25;22.90;;;9.43;;
59830;SDS011;45711;50.108;13.712;2023-02-15T03:34:55;22.02;;;8.35;;
59830;SDS011;45711;50.108;13.712;2023-02-15T03:37:23;21.98;;;9.18;;
59830;SDS011;45711;50.108;13.712;2023-02-15T03:39:55;22.73;;;8.70;;
59830;SDS011;45711;50.108;13.712;2023-02-15T03:42:43;25.95;;;8.82;;
59830;SDS011;45711;50.108;13.712;2023-02-15T03:45:10;29.02;;;10.63;;
59830;SDS011;45711;50.108;13.712;2023-02-15T03:47:41;35.78;;;11.60;;
59830;SDS011;45711;50.108;13.712;2023-02-15T03:50:12;33.38;;;11.27;;
59830;SDS011;45711;50.108;13.712;2023-02-15T03:53:03;26.75;;;10.75;;
59830;SDS011;45711;50.108;13.712;2023-02-15T03:55:31;31.92;;;10.65;;
59830;SDS011;45711;50.108;13.712;2023-02-15T03:57:58;25.02;;;9.85;;
59830;SDS011;45711;50.108;13.712;2023-02-15T04:00:43;21.10;;;8.85;;
59830;SDS011;45711;50.108;13.712;2023-02-15T04:03:33;26.25;;;9.18;;
59830;SDS011;45711;50.108;13.712;2023-02-15T04:06:04;27.50;;;10.10;;
59830;SDS011;45711;50.108;13.712;2023-02-15T04:08:31;28.13;;;9.95;;
59830;SDS011;45711;50.108;13.712;2023-02-15T04:11:15;25.33;;;9.00;;
59830;SDS011;45711;50.108;13.712;2023-02-15T04:13:41;28.90;;;9.35;;
59830;SDS011;45711;50.108;13.712;2023-02-15T04:16:07;24.98;;;9.88;;
59830;SDS011;45711;50.108;13.712;2023-02-15T04:18:33;24.40;;;10.48;;
59830;SDS011;45711;50.108;13.712;2023-02-15T04:21:19;27.42;;;9.45;;
59830;SDS011;45711;50.108;13.712;2023-02-15T04:24:05;23.73;;;10.13;;
59830;SDS011;45711;50.108;13.712;2023-02-15T04:26:50;38.00;;;10.70;;
59830;SDS011;45711;50.108;13.712;2023-02-15T04:29:19;34.70;;;10.30;;
59830;SDS011;45711;50.108;13.712;2023-02-15T04:31:45;39.95;;;10.90;;
59830;SDS011;45711;50.108;13.712;2023-02-15T04:34:11;30.50;;;10.60;;
59830;SDS011;45711;50.108;13.712;2023-02-15T04:36:36;33.10;;;9.38;;
59830;SDS011;45711;50.108;13.712;2023-02-15T04:39:02;28.27;;;10.30;;
59830;SDS011;45711;50.108;13.712;2023-02-15T04:41:29;27.10;;;9.40;;
59830;SDS011;45711;50.108;13.712;2023-02-15T04:43:54;31.45;;;10.73;;
59830;SDS011;45711;50.108;13.712;2023-02-15T04:46:21;31.45;;;9.40;;
59830;SDS011;45711;50.108;13.712;2023-02-15T04:48:47;27.02;;;9.25;;
59830;SDS011;45711;50.108;13.712;2023-02-15T04:51:12;26.02;;;9.75;;
59830;SDS011;45711;50.108;13.712;2023-02-15T04:53:38;25.73;;;9.27;;
59830;SDS011;45711;50.108;13.712;2023-02-15T04:56:03;25.88;;;9.95;;
59830;SDS011;45711;50.108;13.712;2023-02-15T04:58:30;30.95;;;10.35;;
59830;SDS011;45711;50.108;13.712;2023-02-15T05:00:56;24.42;;;9.18;;
59830;SDS011;45711;50.108;13.712;2023-02-15T05:03:22;26.20;;;9.13;;
59830;SDS011;45711;50.108;13.712;2023-02-15T05:05:47;28.02;;;9.93;;
59830;SDS011;45711;50.108;13.712;2023-02-15T05:08:13;28.17;;;10.35;;
59830;SDS011;45711;50.108;13.712;2023-02-15T05:10:38;25.98;;;9.40;;
59830;SDS011;45711;50.108;13.712;2023-02-15T05:13:04;35.47;;;11.50;;
59830;SDS011;45711;50.108;13.712;2023-02-15T05:15:31;29.05;;;11.02;;
59830;SDS011;45711;50.108;13.712;2023-02-15T05:17:56;35.90;;;11.07;;
59830;SDS011;45711;50.108;13.712;2023-02-15T05:20:22;34.20;;;11.15;;
59830;SDS011;45711;50.108;13.712;2023-02-15T05:22:48;29.30;;;10.88;;
59830;SDS011;45711;50.108;13.712;2023-02-15T05:25:13;25.08;;;9.70;;
59830;SDS011;45711;50.108;13.712;2023-02-15T05:27:57;27.98;;;9.38;;
59830;SDS011;45711;50.108;13.712;2023-02-15T05:30:43;30.15;;;10.48;;
59830;SDS011;45711;50.108;13.712;2023-02-15T05:33:08;22.77;;;9.95;;
59830;SDS011;45711;50.108;13.712;2023-02-15T05:35:34;24.48;;;8.40;;
59830;SDS011;45711;50.108;13.712;2023-02-15T05:37:59;19.52;;;7.53;;
59830;SDS011;45711;50.108;13.712;2023-02-15T05:40:25;17.60;;;8.13;;
59830;SDS011;45711;50.108;13.712;2023-02-15T05:42:51;20.83;;;8.40;;
59830;SDS011;45711;50.108;13.712;2023-02-15T05:45:16;17.92;;;8.27;;
59830;SDS011;45711;50.108;13.712;2023-02-15T05:47:43;20.73;;;8.48;;
59830;SDS011;45711;50.108;13.712;2023-02-15T05:50:09;17.00;;;6.57;;
59830;SDS011;45711;50.108;13.712;2023-02-15T05:52:36;16.13;;;6.85;;
59830;SDS011;45711;50.108;13.712;2023-02-15T05:55:02;19.77;;;8.10;;
59830;SDS011;45711;50.108;13.712;2023-02-15T05:57:29;22.40;;;8.75;;
59830;SDS011;45711;50.108;13.712;2023-02-15T05:59:55;21.33;;;8.55;;
59830;SDS011;45711;50.108;13.712;2023-02-15T06:02:20;22.52;;;9.05;;
59830;SDS011;45711;50.108;13.712;2023-02-15T06:04:47;20.85;;;8.85;;
59830;SDS011;45711;50.108;13.712;2023-02-15T06:07:13;23.27;;;9.20;;
59830;SDS011;45711;50.108;13.712;2023-02-15T06:09:38;20.13;;;8.80;;
59830;SDS011;45711;50.108;13.712;2023-02-15T06:12:04;20.20;;;8.90;;
59830;SDS011;45711;50.108;13.712;2023-02-15T06:14:30;20.85;;;8.20;;
59830;SDS011;45711;50.108;13.712;2023-02-15T06:16:55;21.85;;;8.95;;
59830;SDS011;45711;50.108;13.712;2023-02-15T06:19:21;19.90;;;8.18;;
59830;SDS011;45711;50.108;13.712;2023-02-15T06:21:49;22.80;;;8.60;;
59830;SDS011;45711;50.108;13.712;2023-02-15T06:24:14;21.92;;;8.80;;
59830;SDS011;45711;50.108;13.712;2023-02-15T06:26:40;21.90;;;9.07;;
59830;SDS011;45711;50.108;13.712;2023-02-15T06:29:06;20.27;;;9.25;;
59830;SDS011;45711;50.108;13.712;2023-02-15T06:31:32;18.75;;;8.57;;
59830;SDS011;45711;50.108;13.712;2023-02-15T06:33:57;20.25;;;9.55;;
59830;SDS011;45711;50.108;13.712;2023-02-15T06:36:26;23.45;;;9.50;;
59830;SDS011;45711;50.108;13.712;2023-02-15T06:38:53;21.40;;;9.75;;
59830;SDS011;45711;50.108;13.712;2023-02-15T06:41:19;20.05;;;8.77;;
59830;SDS011;45711;50.108;13.712;2023-02-15T06:43:45;25.08;;;9.88;;
59830;SDS011;45711;50.108;13.712;2023-02-15T06:46:10;25.63;;;10.07;;
59830;SDS011;45711;50.108;13.712;2023-02-15T06:48:36;23.92;;;9.57;;
59830;SDS011;45711;50.108;13.712;2023-02-15T06:51:02;22.55;;;9.43;;
59830;SDS011;45711;50.108;13.712;2023-02-15T06:53:27;19.63;;;9.63;;
59830;SDS011;45711;50.108;13.712;2023-02-15T06:56:00;21.73;;;9.57;;
59830;SDS011;45711;50.108;13.712;2023-02-15T06:58:28;24.02;;;9.50;;
59830;SDS011;45711;50.108;13.712;2023-02-15T07:00:53;26.73;;;9.88;;
59830;SDS011;45711;50.108;13.712;2023-02-15T07:03:19;30.45;;;10.30;;
59830;SDS011;45711;50.108;13.712;2023-02-15T07:05:44;26.48;;;8.88;;
59830;SDS011;45711;50.108;13.712;2023-02-15T07:08:12;27.85;;;9.02;;
59830;SDS011;45711;50.108;13.712;2023-02-15T07:10:38;20.58;;;8.25;;
59830;SDS011;45711;50.108;13.712;2023-02-15T07:13:05;24.02;;;8.80;;
59830;SDS011;45711;50.108;13.712;2023-02-15T07:15:30;20.83;;;8.27;;
59830;SDS011;45711;50.108;13.712;2023-02-15T07:17:56;27.98;;;9.65;;
59830;SDS011;45711;50.108;13.712;2023-02-15T07:20:22;24.90;;;8.88;;
59830;SDS011;45711;50.108;13.712;2023-02-15T07:22:48;22.92;;;8.52;;
59830;SDS011;45711;50.108;13.712;2023-02-15T07:25:15;19.67;;;8.05;;
59830;SDS011;45711;50.108;13.712;2023-02-15T07:27:41;22.40;;;8.48;;
59830;SDS011;45711;50.108;13.712;2023-02-15T07:30:09;21.90;;;9.05;;
59830;SDS011;45711;50.108;13.712;2023-02-15T07:32:36;24.13;;;10.07;;
59830;SDS011;45711;50.108;13.712;2023-02-15T07:35:22;26.20;;;10.25;;
59830;SDS011;45711;50.108;13.712;2023-02-15T07:37:47;35.50;;;13.77;;
59830;SDS011;45711;50.108;13.712;2023-02-15T07:40:13;27.27;;;10.18;;
59830;SDS011;45711;50.108;13.712;2023-02-15T07:42:38;23.45;;;8.43;;
59830;SDS011;45711;50.108;13.712;2023-02-15T07:45:04;23.27;;;9.02;;
59830;SDS011;45711;50.108;13.712;2023-02-15T07:47:31;23.30;;;8.40;;
59830;SDS011;45711;50.108;13.712;2023-02-15T07:49:57;20.52;;;8.48;;
59830;SDS011;45711;50.108;13.712;2023-02-15T07:52:22;25.42;;;10.10;;
59830;SDS011;45711;50.108;13.712;2023-02-15T07:54:48;24.42;;;9.93;;
59830;SDS011;45711;50.108;13.712;2023-02-15T07:57:13;22.33;;;9.13;;
59830;SDS011;45711;50.108;13.712;2023-02-15T07:59:39;29.05;;;10.88;;
59830;SDS011;45711;50.108;13.712;2023-02-15T08:02:05;28.75;;;10.15;;
59830;SDS011;45711;50.108;13.712;2023-02-15T08:04:34;30.33;;;10.05;;
59830;SDS011;45711;50.108;13.712;2023-02-15T08:07:00;29.08;;;10.38;;
59830;SDS011;45711;50.108;13.712;2023-02-15T08:09:25;31.85;;;10.70;;
59830;SDS011;45711;50.108;13.712;2023-02-15T08:11:51;25.38;;;9.65;;
59830;SDS011;45711;50.108;13.712;2023-02-15T08:14:17;31.70;;;10.55;;
59830;SDS011;45711;50.108;13.712;2023-02-15T08:16:45;20.95;;;8.88;;
59830;SDS011;45711;50.108;13.712;2023-02-15T08:19:13;19.42;;;8.75;;
59830;SDS011;45711;50.108;13.712;2023-02-15T08:21:42;21.85;;;8.25;;
59830;SDS011;45711;50.108;13.712;2023-02-15T08:24:09;17.38;;;7.82;;
59830;SDS011;45711;50.108;13.712;2023-02-15T08:26:37;21.23;;;8.25;;
59830;SDS011;45711;50.108;13.712;2023-02-15T08:29:06;22.45;;;8.30;;
59830;SDS011;45711;50.108;13.712;2023-02-15T08:31:33;20.38;;;8.43;;
59830;SDS011;45711;50.108;13.712;2023-02-15T08:33:59;27.25;;;10.30;;
59830;SDS011;45711;50.108;13.712;2023-02-15T08:36:25;27.52;;;10.32;;
59830;SDS011;45711;50.108;13.712;2023-02-15T08:38:54;19.08;;;9.23;;
59830;SDS011;45711;50.108;13.712;2023-02-15T08:41:22;27.83;;;11.70;;
59830;SDS011;45711;50.108;13.712;2023-02-15T08:43:50;23.35;;;9.85;;
59830;SDS011;45711;50.108;13.712;2023-02-15T08:46:17;24.98;;;9.13;;
59830;SDS011;45711;50.108;13.712;2023-02-15T08:48:43;18.63;;;8.48;;
59830;SDS011;45711;50.108;13.712;2023-02-15T08:51:10;21.98;;;8.48;;
59830;SDS011;45711;50.108;13.712;2023-02-15T08:53:37;23.92;;;9.45;;
59830;SDS011;45711;50.108;13.712;2023-02-15T08:56:05;25.10;;;10.98;;
59830;SDS011;45711;50.108;13.712;2023-02-15T08:58:31;24.00;;;10.52;;
59830;SDS011;45711;50.108;13.712;2023-02-15T09:00:57;19.85;;;9.48;;
59830;SDS011;45711;50.108;13.712;2023-02-15T09:03:23;27.33;;;9.88;;
59830;SDS011;45711;50.108;13.712;2023-02-15T09:05:49;22.60;;;8.98;;
59830;SDS011;45711;50.108;13.712;2023-02-15T09:08:21;34.83;;;17.15;;
59830;SDS011;45711;50.108;13.712;2023-02-15T09:10:47;22.42;;;10.70;;
59830;SDS011;45711;50.108;13.712;2023-02-15T09:13:14;24.45;;;9.55;;
59830;SDS011;45711;50.108;13.712;2023-02-15T09:15:39;22.88;;;10.13;;
59830;SDS011;45711;50.108;13.712;2023-02-15T09:18:05;20.70;;;9.00;;
59830;SDS011;45711;50.108;13.712;2023-02-15T09:20:31;18.85;;;9.10;;
59830;SDS011;45711;50.108;13.712;2023-02-15T09:22:57;20.55;;;8.88;;
59830;SDS011;45711;50.108;13.712;2023-02-15T09:25:22;24.55;;;10.02;;
59830;SDS011;45711;50.108;13.712;2023-02-15T09:27:48;24.27;;;9.98;;
59830;SDS011;45711;50.108;13.712;2023-02-15T09:30:15;52.42;;;27.10;;
59830;SDS011;45711;50.108;13.712;2023-02-15T09:32:41;26.90;;;12.77;;
59830;SDS011;45711;50.108;13.712;2023-02-15T09:35:06;21.88;;;10.07;;
59830;SDS011;45711;50.108;13.712;2023-02-15T09:37:32;20.33;;;9.77;;
59830;SDS011;45711;50.108;13.712;2023-02-15T09:39:58;31.58;;;16.27;;
59830;SDS011;45711;50.108;13.712;2023-02-15T09:45:23;13.98;;;7.55;;
59830;SDS011;45711;50.108;13.712;2023-02-15T09:48:01;14.85;;;7.70;;
59830;SDS011;45711;50.108;13.712;2023-02-15T09:50:38;15.80;;;7.95;;
59830;SDS011;45711;50.108;13.712;2023-02-15T09:53:15;21.63;;;11.77;;
59830;SDS011;45711;50.108;13.712;2023-02-15T09:55:53;24.17;;;11.38;;
59830;SDS011;45711;50.108;13.712;2023-02-15T09:58:27;28.73;;;15.18;;
59830;SDS011;45711;50.108;13.712;2023-02-15T10:01:06;26.35;;;11.20;;
59830;SDS011;45711;50.108;13.712;2023-02-15T10:03:40;27.10;;;14.13;;
59830;SDS011;45711;50.108;13.712;2023-02-15T10:06:19;18.48;;;8.75;;
59830;SDS011;45711;50.108;13.712;2023-02-15T10:09:09;20.15;;;10.57;;
59830;SDS011;45711;50.108;13.712;2023-02-15T10:11:53;17.58;;;8.07;;
59830;SDS011;45711;50.108;13.712;2023-02-15T10:14:35;19.55;;;8.52;;
59830;SDS011;45711;50.108;13.712;2023-02-15T10:17:16;17.05;;;8.25;;
59830;SDS011;45711;50.108;13.712;2023-02-15T10:19:58;17.08;;;8.43;;
59830;SDS011;45711;50.108;13.712;2023-02-15T10:22:37;20.42;;;8.98;;
59830;SDS011;45711;50.108;13.712;2023-02-15T10:25:16;23.83;;;10.43;;
59830;SDS011;45711;50.108;13.712;2023-02-15T10:27:48;24.90;;;11.00;;
59830;SDS011;45711;50.108;13.712;2023-02-15T10:30:15;23.30;;;10.85;;
59830;SDS011;45711;50.108;13.712;2023-02-15T10:32:47;28.08;;;11.30;;
59830;SDS011;45711;50.108;13.712;2023-02-15T10:35:22;27.90;;;14.23;;
59830;SDS011;45711;50.108;13.712;2023-02-15T10:37:56;30.80;;;13.45;;
59830;SDS011;45711;50.108;13.712;2023-02-15T10:40:40;27.92;;;12.15;;
59830;SDS011;45711;50.108;13.712;2023-02-15T10:43:20;31.23;;;13.90;;
59830;SDS011;45711;50.108;13.712;2023-02-15T10:46:01;33.63;;;13.95;;
59830;SDS011;45711;50.108;13.712;2023-02-15T10:51:43;26.13;;;12.02;;
59830;SDS011;45711;50.108;13.712;2023-02-15T10:54:21;24.08;;;11.15;;
59830;SDS011;45711;50.108;13.712;2023-02-15T10:56:59;26.55;;;11.65;;
59830;SDS011;45711;50.108;13.712;2023-02-15T10:59:38;21.55;;;10.25;;
59830;SDS011;45711;50.108;13.712;2023-02-15T11:02:13;28.27;;;11.45;;
59830;SDS011;45711;50.108;13.712;2023-02-15T11:04:52;29.73;;;12.60;;
59830;SDS011;45711;50.108;13.712;2023-02-15T11:07:23;33.30;;;14.63;;
59830;SDS011;45711;50.108;13.712;2023-02-15T11:09:51;42.92;;;15.35;;
59830;SDS011;45711;50.108;13.712;2023-02-15T11:12:22;31.55;;;15.63;;
59830;SDS011;45711;50.108;13.712;2023-02-15T11:14:51;39.42;;;15.70;;
59830;SDS011;45711;50.108;13.712;2023-02-15T11:17:24;30.25;;;13.73;;
59830;SDS011;45711;50.108;13.712;2023-02-15T11:19:56;32.58;;;13.77;;
59830;SDS011;45711;50.108;13.712;2023-02-15T11:22:27;31.65;;;14.23;;
59830;SDS011;45711;50.108;13.712;2023-02-15T11:24:55;30.30;;;14.30;;
59830;SDS011;45711;50.108;13.712;2023-02-15T11:27:25;25.70;;;12.82;;
59830;SDS011;45711;50.108;13.712;2023-02-15T11:29:54;32.08;;;12.65;;
59830;SDS011;45711;50.108;13.712;2023-02-15T11:32:26;28.42;;;13.10;;
59830;SDS011;45711;50.108;13.712;2023-02-15T11:34:54;32.33;;;14.30;;
59830;SDS011;45711;50.108;13.712;2023-02-15T11:37:27;34.03;;;14.70;;
59830;SDS011;45711;50.108;13.712;2023-02-15T11:39:57;32.88;;;14.73;;
59830;SDS011;45711;50.108;13.712;2023-02-15T11:42:23;36.75;;;15.65;;
59830;SDS011;45711;50.108;13.712;2023-02-15T11:44:55;31.13;;;14.88;;
59830;SDS011;45711;50.108;13.712;2023-02-15T11:47:25;34.03;;;15.38;;
59830;SDS011;45711;50.108;13.712;2023-02-15T11:49:50;33.28;;;15.70;;
59830;SDS011;45711;50.108;13.712;2023-02-15T11:52:17;32.40;;;16.05;;
59830;SDS011;45711;50.108;13.712;2023-02-15T11:54:44;34.28;;;15.13;;
59830;SDS011;45711;50.108;13.712;2023-02-15T11:57:13;29.63;;;14.85;;
59830;SDS011;45711;50.108;13.712;2023-02-15T11:59:43;30.67;;;13.70;;
59830;SDS011;45711;50.108;13.712;2023-02-15T12:02:15;35.17;;;15.80;;
59830;SDS011;45711;50.108;13.712;2023-02-15T12:04:43;36.67;;;15.45;;
59830;SDS011;45711;50.108;13.712;2023-02-15T12:07:16;31.60;;;13.60;;
59830;SDS011;45711;50.108;13.712;2023-02-15T12:09:48;29.98;;;13.45;;
59830;SDS011;45711;50.108;13.712;2023-02-15T12:12:22;35.42;;;15.15;;
59830;SDS011;45711;50.108;13.712;2023-02-15T12:14:51;30.23;;;14.18;;
59830;SDS011;45711;50.108;13.712;2023-02-15T12:17:18;42.60;;;17.58;;
59830;SDS011;45711;50.108;13.712;2023-02-15T12:19:46;36.00;;;16.23;;
59830;SDS011;45711;50.108;13.712;2023-02-15T12:22:21;40.17;;;17.98;;
59830;SDS011;45711;50.108;13.712;2023-02-15T12:24:48;35.22;;;15.35;;
59830;SDS011;45711;50.108;13.712;2023-02-15T12:27:18;39.83;;;17.30;;
59830;SDS011;45711;50.108;13.712;2023-02-15T12:29:47;38.67;;;17.08;;
59830;SDS011;45711;50.108;13.712;2023-02-15T12:32:17;39.65;;;16.20;;
59830;SDS011;45711;50.108;13.712;2023-02-15T12:34:44;45.92;;;18.42;;
59830;SDS011;45711;50.108;13.712;2023-02-15T12:37:15;44.45;;;18.30;;
59830;SDS011;45711;50.108;13.712;2023-02-15T12:39:52;39.72;;;17.48;;
59830;SDS011;45711;50.108;13.712;2023-02-15T12:42:20;41.85;;;17.85;;
59830;SDS011;45711;50.108;13.712;2023-02-15T12:44:54;39.88;;;17.92;;
59830;SDS011;45711;50.108;13.712;2023-02-15T12:47:22;44.50;;;18.50;;
59830;SDS011;45711;50.108;13.712;2023-02-15T12:50:03;40.30;;;17.77;;
59830;SDS011;45711;50.108;13.712;2023-02-15T12:52:41;42.83;;;18.00;;
59830;SDS011;45711;50.108;13.712;2023-02-15T12:55:18;42.95;;;18.95;;
59830;SDS011;45711;50.108;13.712;2023-02-15T12:57:46;49.90;;;20.65;;
59830;SDS011;45711;50.108;13.712;2023-02-15T13:00:24;46.22;;;18.55;;
59830;SDS011;45711;50.108;13.712;2023-02-15T13:02:53;45.15;;;19.67;;
59830;SDS011;45711;50.108;13.712;2023-02-15T13:05:23;44.30;;;18.73;;
59830;SDS011;45711;50.108;13.712;2023-02-15T13:07:54;43.50;;;18.58;;
59830;SDS011;45711;50.108;13.712;2023-02-15T13:10:25;47.90;;;19.98;;
59830;SDS011;45711;50.108;13.712;2023-02-15T13:12:53;46.08;;;18.85;;
59830;SDS011;45711;50.108;13.712;2023-02-15T13:15:29;41.63;;;19.52;;
59830;SDS011;45711;50.108;13.712;2023-02-15T13:17:59;43.83;;;18.10;;
59830;SDS011;45711;50.108;13.712;2023-02-15T13:20:27;44.65;;;17.90;;
59830;SDS011;45711;50.108;13.712;2023-02-15T13:22:54;49.47;;;18.08;;
59830;SDS011;45711;50.108;13.712;2023-02-15T13:25:25;40.38;;;17.27;;
59830;SDS011;45711;50.108;13.712;2023-02-15T13:27:54;46.85;;;19.00;;
59830;SDS011;45711;50.108;13.712;2023-02-15T13:30:26;46.28;;;18.23;;
59830;SDS011;45711;50.108;13.712;2023-02-15T13:32:58;44.40;;;18.15;;
59830;SDS011;45711;50.108;13.712;2023-02-15T13:35:27;44.10;;;18.17;;
59830;SDS011;45711;50.108;13.712;2023-02-15T13:38:06;43.05;;;18.60;;
59830;SDS011;45711;50.108;13.712;2023-02-15T13:40:45;49.53;;;20.92;;
59830;SDS011;45711;50.108;13.712;2023-02-15T13:43:19;51.15;;;19.33;;
59830;SDS011;45711;50.108;13.712;2023-02-15T13:46:01;52.92;;;22.52;;
59830;SDS011;45711;50.108;13.712;2023-02-15T13:48:39;52.38;;;21.30;;
59830;SDS011;45711;50.108;13.712;2023-02-15T13:51:13;49.85;;;21.23;;
59830;SDS011;45711;50.108;13.712;2023-02-15T13:54:02;50.03;;;20.90;;
59830;SDS011;45711;50.108;13.712;2023-02-15T13:56:46;49.95;;;22.05;;
59830;SDS011;45711;50.108;13.712;2023-02-15T13:59:28;57.83;;;21.77;;
59830;SDS011;45711;50.108;13.712;2023-02-15T14:02:17;55.67;;;21.70;;
59830;SDS011;45711;50.108;13.712;2023-02-15T14:07:55;46.75;;;20.33;;
59830;SDS011;45711;50.108;13.712;2023-02-15T14:10:32;54.80;;;20.83;;
59830;SDS011;45711;50.108;13.712;2023-02-15T14:16:06;53.03;;;22.50;;
59830;SDS011;45711;50.108;13.712;2023-02-15T14:18:39;55.47;;;21.83;;
59830;SDS011;45711;50.108;13.712;2023-02-15T14:21:10;65.18;;;25.42;;
59830;SDS011;45711;50.108;13.712;2023-02-15T14:23:43;54.10;;;22.63;;
59830;SDS011;45711;50.108;13.712;2023-02-15T14:26:24;55.45;;;21.70;;
59830;SDS011;45711;50.108;13.712;2023-02-15T14:29:01;50.38;;;20.92;;
59830;SDS011;45711;50.108;13.712;2023-02-15T14:31:39;51.42;;;21.60;;
59830;SDS011;45711;50.108;13.712;2023-02-15T14:34:08;55.90;;;22.70;;
59830;SDS011;45711;50.108;13.712;2023-02-15T14:36:43;56.88;;;21.15;;
59830;SDS011;45711;50.108;13.712;2023-02-15T14:39:11;58.72;;;21.75;;
59830;SDS011;45711;50.108;13.712;2023-02-15T14:42:06;49.67;;;20.20;;
59830;SDS011;45711;50.108;13.712;2023-02-15T14:44:40;49.20;;;19.02;;